HESH/SSH METAR and TAF weather

Enter ICAO airport designator
Station Type Date Time Source
HESH METAR 2018/01/22 11:00 UTC NOAA

HESH 221100Z 06006KT CAVOK 24/08 Q1010 NOSIG


Station Type Date Time Source
HESH Decoded METAR 2018/01/22 11:00 UTC NOAA

Sharm El Sheikhintl, Egypt (HESH) 27-58N 034-23E
Jan 22, 2018 - 06:00 AM EST / 2018.01.22 1100 UTC
Wind: from the ENE (060 degrees) at 7 MPH (6 KT):0
Visibility: greater than 7 mile(s):0
Temperature: 75 F (24 C)
Dew Point: 46 F (8 C)
Relative Humidity: 35%
Pressure (altimeter): 29.83 in. Hg (1010 hPa)
ob: HESH 221100Z 06006KT CAVOK 24/08 Q1010 NOSIG
cycle: 11

Station Type Date Time Source
HESH TAF 2018/01/22 12:57 UTC NOAA

TAF TAF HESH 221100Z 2212/2318 33012KT 8000 NSC


Example: see airport list